Time;durP1;ratioP1;P1;durP2;ratioP2;P2;SDS_P1;SDS_P2;PMS_P1;PMS_P2;Temp;Humidity;BMP_temperature;BMP_pressure;BME280_temperature;BME280_humidity;BME280_pressure;Samples;Min_cycle;Max_cycle;Signal;HPM_P1;HPM_P2
2024/02/24 00:02:17;;;;;;;9.38;3.17;;;;;;;;;;4923699;29;20043;-85
2024/02/24 00:05:03;;;;;;;7.25;2.60;;;;;;;;;;4920596;28;20031;-84
2024/02/24 00:07:49;;;;;;;6.38;3.20;;;;;;;;;;4923929;29;20046;-85
2024/02/24 00:10:35;;;;;;;6.88;2.95;;;;;;;;;;4926448;29;20027;-85
2024/02/24 00:13:20;;;;;;;10.13;3.30;;;;;;;;;;4925921;29;20500;-85
2024/02/24 00:16:05;;;;;;;5.75;2.38;;;;;;;;;;4928646;29;20099;-84
2024/02/24 00:18:55;;;;;;;8.27;2.63;;;;;;;;;;4922220;29;20058;-83
2024/02/24 00:21:40;;;;;;;5.03;2.10;;;;;;;;;;4916597;29;20027;-84
2024/02/24 00:24:26;;;;;;;6.95;3.13;;;;;;;;;;4915681;29;20035;-83
2024/02/24 00:27:11;;;;;;;6.13;2.83;;;;;;;;;;4919503;29;20031;-84
2024/02/24 00:29:56;;;;;;;4.88;2.20;;;;;;;;;;4925405;29;20024;-84
2024/02/24 00:32:41;;;;;;;7.47;2.67;;;;;;;;;;4919711;29;20035;-84
2024/02/24 00:35:28;;;;;;;5.65;2.60;;;;;;;;;;4916583;29;20086;-85
2024/02/24 00:38:13;;;;;;;7.78;2.75;;;;;;;;;;4918472;29;20062;-83
2024/02/24 00:40:59;;;;;;;6.28;1.92;;;;;;;;;;4924579;29;20019;-84
2024/02/24 00:43:44;;;;;;;4.85;2.00;;;;;;;;;;4922680;29;20155;-85
2024/02/24 00:46:30;;;;;;;5.43;2.40;;;;;;;;;;4926317;29;20051;-83
2024/02/24 00:49:15;;;;;;;8.82;2.90;;;;;;;;;;4935967;29;20098;-84
2024/02/24 00:52:00;;;;;;;2.78;1.85;;;;;;;;;;4924684;29;20055;-84
2024/02/24 00:54:45;;;;;;;8.52;2.38;;;;;;;;;;4923661;29;20079;-84
2024/02/24 00:57:31;;;;;;;5.93;2.45;;;;;;;;;;4924577;29;20129;-83
2024/02/24 01:00:19;;;;;;;8.55;2.45;;;;;;;;;;4915210;29;20015;-84
2024/02/24 01:03:05;;;;;;;5.53;2.25;;;;;;;;;;4917434;29;20142;-84
2024/02/24 01:05:50;;;;;;;5.72;2.25;;;;;;;;;;4923621;29;20024;-85
2024/02/24 01:08:35;;;;;;;6.75;2.42;;;;;;;;;;4926246;28;20036;-85
2024/02/24 01:11:20;;;;;;;4.25;2.15;;;;;;;;;;4920227;29;20060;-85
2024/02/24 01:14:06;;;;;;;3.38;1.88;;;;;;;;;;4916019;29;20024;-83
2024/02/24 01:16:51;;;;;;;2.83;1.63;;;;;;;;;;4922217;29;20430;-83
2024/02/24 01:19:36;;;;;;;7.03;2.67;;;;;;;;;;4922299;29;20344;-85
2024/02/24 01:22:25;;;;;;;6.00;1.95;;;;;;;;;;4929702;28;20162;-85
2024/02/24 01:25:10;;;;;;;3.83;1.73;;;;;;;;;;4903710;29;20061;-85
2024/02/24 01:27:56;;;;;;;2.85;1.80;;;;;;;;;;4921971;28;20031;-84
2024/02/24 01:30:41;;;;;;;3.67;1.65;;;;;;;;;;4925485;29;20471;-83
2024/02/24 01:33:26;;;;;;;6.25;2.70;;;;;;;;;;4919687;29;20107;-84
2024/02/24 01:36:11;;;;;;;3.90;1.58;;;;;;;;;;4915967;29;20035;-85
2024/02/24 01:38:56;;;;;;;4.63;1.63;;;;;;;;;;4915147;29;20062;-85
2024/02/24 01:41:42;;;;;;;6.57;1.92;;;;;;;;;;4921826;28;20102;-85
2024/02/24 01:44:28;;;;;;;4.10;2.22;;;;;;;;;;4922018;29;20044;-84
2024/02/24 01:47:28;;;;;;;5.30;2.33;;;;;;;;;;4925387;29;20502;-84
2024/02/24 01:50:14;;;;;;;3.53;2.00;;;;;;;;;;4909481;29;20030;-83
2024/02/24 01:52:59;;;;;;;6.70;1.95;;;;;;;;;;4923088;29;20035;-83
2024/02/24 01:55:44;;;;;;;6.22;2.08;;;;;;;;;;4918812;29;20024;-85
2024/02/24 01:58:31;;;;;;;3.90;1.90;;;;;;;;;;4924322;29;20094;-85
2024/02/24 02:01:17;;;;;;;6.22;2.10;;;;;;;;;;4902554;29;20031;-84
2024/02/24 02:04:02;;;;;;;6.80;2.20;;;;;;;;;;4921596;29;20083;-84
2024/02/24 02:06:47;;;;;;;5.40;2.88;;;;;;;;;;4921418;29;20106;-84
2024/02/24 02:09:32;;;;;;;7.57;2.28;;;;;;;;;;4924403;29;20110;-84
2024/02/24 02:12:18;;;;;;;4.47;1.45;;;;;;;;;;4921748;29;20064;-86
2024/02/24 02:15:03;;;;;;;5.43;2.78;;;;;;;;;;4923205;28;20047;-84
2024/02/24 02:17:49;;;;;;;5.30;1.85;;;;;;;;;;4924777;29;20047;-85
2024/02/24 02:20:34;;;;;;;3.92;1.77;;;;;;;;;;4921552;29;20078;-84
2024/02/24 02:23:20;;;;;;;3.30;1.42;;;;;;;;;;4924104;28;20030;-83
2024/02/24 02:26:05;;;;;;;6.28;2.00;;;;;;;;;;4921393;29;20035;-83
2024/02/24 02:28:50;;;;;;;5.07;2.17;;;;;;;;;;4924272;29;20019;-84
2024/02/24 02:31:36;;;;;;;8.75;1.77;;;;;;;;;;4910393;29;20023;-84
2024/02/24 02:34:21;;;;;;;4.72;2.33;;;;;;;;;;4921983;29;20023;-84
2024/02/24 02:37:06;;;;;;;8.13;2.25;;;;;;;;;;4923056;29;20399;-84
2024/02/24 02:39:52;;;;;;;3.85;1.67;;;;;;;;;;4921944;29;20023;-86
2024/02/24 02:42:37;;;;;;;6.75;2.38;;;;;;;;;;4929766;29;20050;-84
2024/02/24 02:45:23;;;;;;;2.83;1.35;;;;;;;;;;4921898;29;20050;-85
2024/02/24 02:48:09;;;;;;;3.40;1.58;;;;;;;;;;4916006;29;20106;-84
2024/02/24 02:50:54;;;;;;;4.88;1.70;;;;;;;;;;4925118;28;20027;-84
2024/02/24 02:53:39;;;;;;;3.03;1.40;;;;;;;;;;4922399;29;20035;-85
2024/02/24 02:56:24;;;;;;;2.67;1.17;;;;;;;;;;4920411;29;20031;-85
2024/02/24 02:59:10;;;;;;;3.50;1.60;;;;;;;;;;4924326;29;20039;-83
2024/02/24 03:01:58;;;;;;;3.30;1.55;;;;;;;;;;4928031;28;20035;-85
2024/02/24 03:04:44;;;;;;;4.75;1.55;;;;;;;;;;4935192;28;20027;-85
2024/02/24 03:07:29;;;;;;;3.80;1.38;;;;;;;;;;4920013;29;20064;-85
2024/02/24 03:10:14;;;;;;;3.67;1.67;;;;;;;;;;4924680;29;20075;-85
2024/02/24 03:12:59;;;;;;;4.13;1.25;;;;;;;;;;4925958;29;20435;-86
2024/02/24 03:15:45;;;;;;;3.92;1.67;;;;;;;;;;4912451;29;20031;-84
2024/02/24 03:18:30;;;;;;;5.18;1.70;;;;;;;;;;4920045;29;20036;-84
2024/02/24 03:21:29;;;;;;;3.33;1.38;;;;;;;;;;4925941;29;20063;-84
2024/02/24 03:24:14;;;;;;;2.42;1.63;;;;;;;;;;4919983;29;20115;-84
2024/02/24 03:27:03;;;;;;;3.33;1.58;;;;;;;;;;4919502;29;20020;-84
2024/02/24 03:29:49;;;;;;;2.78;1.27;;;;;;;;;;4926502;29;20075;-84
2024/02/24 03:32:34;;;;;;;3.83;1.17;;;;;;;;;;4924749;28;20023;-84
2024/02/24 03:35:19;;;;;;;3.63;1.77;;;;;;;;;;4922144;29;20012;-85
2024/02/24 03:38:05;;;;;;;3.38;1.50;;;;;;;;;;4925943;29;20030;-85
2024/02/24 03:40:50;;;;;;;2.55;1.33;;;;;;;;;;4928982;29;20024;-84
2024/02/24 03:43:36;;;;;;;4.72;1.45;;;;;;;;;;4921543;29;20058;-85
2024/02/24 03:46:21;;;;;;;6.03;2.47;;;;;;;;;;4927318;29;20036;-83
2024/02/24 03:49:06;;;;;;;2.85;1.63;;;;;;;;;;4931179;29;20024;-87
2024/02/24 03:51:51;;;;;;;5.72;1.33;;;;;;;;;;4920012;29;20039;-85
2024/02/24 03:54:36;;;;;;;2.88;1.17;;;;;;;;;;4920289;29;20024;-83
2024/02/24 03:57:22;;;;;;;1.75;1.05;;;;;;;;;;4924995;29;20485;-84
2024/02/24 04:00:08;;;;;;;1.70;1.38;;;;;;;;;;4927852;29;20027;-84
2024/02/24 04:02:53;;;;;;;2.25;0.98;;;;;;;;;;4910105;29;20110;-79
2024/02/24 04:05:38;;;;;;;1.63;0.90;;;;;;;;;;4919767;28;20023;-86
2024/02/24 04:08:24;;;;;;;2.05;1.00;;;;;;;;;;4915898;29;20046;-82
2024/02/24 04:11:10;;;;;;;0.77;0.77;;;;;;;;;;4920779;29;20182;-81
2024/02/24 04:17:10;;;;;;;2.22;1.25;;;;;;;;;;4934535;29;20087;-81
2024/02/24 04:19:55;;;;;;;1.05;0.82;;;;;;;;;;4907644;29;20047;-79
2024/02/24 04:22:56;;;;;;;2.47;1.33;;;;;;;;;;4923941;28;20038;-81
2024/02/24 04:25:41;;;;;;;1.95;0.80;;;;;;;;;;4916102;28;20680;-80
2024/02/24 04:28:27;;;;;;;2.15;1.00;;;;;;;;;;4911155;29;20114;-79
2024/02/24 04:31:12;;;;;;;1.88;0.98;;;;;;;;;;4912715;29;20040;-80
2024/02/24 04:33:57;;;;;;;2.25;1.23;;;;;;;;;;4927753;29;20035;-79
2024/02/24 04:36:43;;;;;;;2.08;1.38;;;;;;;;;;4919362;29;20032;-80
2024/02/24 04:39:28;;;;;;;5.28;1.15;;;;;;;;;;4913787;29;20192;-79
2024/02/24 04:42:14;;;;;;;1.58;1.23;;;;;;;;;;4914617;29;20023;-79
2024/02/24 04:45:00;;;;;;;10.48;3.10;;;;;;;;;;4933845;28;20570;-78
2024/02/24 04:47:44;;;;;;;2.67;1.30;;;;;;;;;;4944901;29;20050;-79
2024/02/24 04:50:30;;;;;;;2.58;1.20;;;;;;;;;;4950664;28;20051;-83
2024/02/24 04:53:15;;;;;;;4.25;1.48;;;;;;;;;;4952853;29;20027;-82
2024/02/24 04:56:01;;;;;;;2.08;1.40;;;;;;;;;;4954696;28;20067;-82
2024/02/24 04:58:46;;;;;;;3.08;1.17;;;;;;;;;;4954581;28;20022;-82
2024/02/24 05:01:32;;;;;;;4.47;1.17;;;;;;;;;;4934511;29;20107;-83
2024/02/24 05:04:17;;;;;;;4.28;1.27;;;;;;;;;;4911117;29;20031;-82
2024/02/24 05:07:02;;;;;;;2.80;1.20;;;;;;;;;;4915421;29;20043;-81
2024/02/24 05:09:48;;;;;;;2.03;1.13;;;;;;;;;;4915613;29;20037;-83
2024/02/24 05:12:36;;;;;;;2.97;1.23;;;;;;;;;;4927066;29;20027;-82
2024/02/24 05:15:21;;;;;;;1.48;1.30;;;;;;;;;;4922356;29;20275;-81
2024/02/24 05:18:06;;;;;;;1.95;1.10;;;;;;;;;;4918892;29;20115;-81
2024/02/24 05:20:52;;;;;;;1.90;0.98;;;;;;;;;;4916809;29;20027;-81
2024/02/24 05:23:37;;;;;;;2.28;1.33;;;;;;;;;;4922320;29;20047;-81
2024/02/24 05:26:26;;;;;;;2.38;1.30;;;;;;;;;;4917277;29;20054;-80
2024/02/24 05:29:11;;;;;;;1.37;0.90;;;;;;;;;;4916539;29;20022;-81
2024/02/24 05:31:56;;;;;;;4.00;1.52;;;;;;;;;;4916938;29;20259;-81
2024/02/24 05:34:42;;;;;;;1.52;1.00;;;;;;;;;;4918822;29;20067;-81
2024/02/24 05:37:27;;;;;;;2.53;1.10;;;;;;;;;;4918996;29;20031;-82
2024/02/24 05:40:15;;;;;;;3.08;1.13;;;;;;;;;;4927157;29;20027;-82
2024/02/24 05:43:00;;;;;;;1.27;1.00;;;;;;;;;;4920171;29;20035;-81
2024/02/24 05:45:45;;;;;;;1.80;1.10;;;;;;;;;;4922341;29;20046;-81
2024/02/24 05:48:31;;;;;;;2.85;1.10;;;;;;;;;;4922674;29;20038;-81
2024/02/24 05:51:19;;;;;;;2.63;0.90;;;;;;;;;;4915279;29;20028;-81
2024/02/24 05:54:04;;;;;;;2.47;1.33;;;;;;;;;;4920482;29;20394;-80
2024/02/24 05:56:49;;;;;;;3.90;1.85;;;;;;;;;;4924228;28;20463;-80
2024/02/24 05:59:35;;;;;;;3.22;1.70;;;;;;;;;;4919780;29;20050;-80
2024/02/24 06:02:20;;;;;;;4.65;1.80;;;;;;;;;;4925270;28;20028;-81
2024/02/24 06:05:06;;;;;;;3.63;2.22;;;;;;;;;;4922895;29;20029;-83
2024/02/24 06:07:51;;;;;;;4.50;2.10;;;;;;;;;;4918932;29;20035;-81
2024/02/24 06:10:37;;;;;;;3.78;1.90;;;;;;;;;;4918799;29;20050;-83
2024/02/24 06:13:22;;;;;;;3.03;1.40;;;;;;;;;;4917131;29;20032;-84
2024/02/24 06:16:08;;;;;;;3.30;1.48;;;;;;;;;;4919423;29;20099;-82
2024/02/24 06:18:53;;;;;;;2.92;1.52;;;;;;;;;;4923189;29;20035;-82
2024/02/24 06:21:38;;;;;;;2.08;1.10;;;;;;;;;;4919496;29;20146;-81
2024/02/24 06:24:23;;;;;;;7.97;1.88;;;;;;;;;;4920709;29;20035;-82
2024/02/24 06:27:08;;;;;;;2.25;1.15;;;;;;;;;;4927746;29;20016;-83
2024/02/24 06:29:54;;;;;;;3.75;1.38;;;;;;;;;;4925698;29;20094;-81
2024/02/24 06:32:39;;;;;;;3.95;1.20;;;;;;;;;;4922611;28;20039;-81
2024/02/24 06:35:25;;;;;;;1.85;1.17;;;;;;;;;;4924915;29;20027;-81
2024/02/24 06:38:10;;;;;;;5.65;1.70;;;;;;;;;;4919652;29;20031;-81
2024/02/24 06:40:55;;;;;;;3.05;1.27;;;;;;;;;;4923263;29;20031;-81
2024/02/24 06:43:40;;;;;;;3.20;1.27;;;;;;;;;;4926855;29;20027;-80
2024/02/24 06:46:26;;;;;;;2.47;1.20;;;;;;;;;;4929713;29;20079;-80
2024/02/24 06:49:11;;;;;;;4.75;1.40;;;;;;;;;;4925155;29;20035;-82
2024/02/24 06:51:56;;;;;;;2.92;1.20;;;;;;;;;;4940168;28;20020;-82
2024/02/24 06:54:42;;;;;;;2.35;1.08;;;;;;;;;;4919347;29;20140;-82
2024/02/24 06:57:27;;;;;;;3.85;1.38;;;;;;;;;;4907292;29;20036;-81
2024/02/24 07:00:12;;;;;;;2.00;1.20;;;;;;;;;;4922910;28;20031;-81
2024/02/24 07:02:57;;;;;;;2.85;1.40;;;;;;;;;;4924449;29;20438;-80
2024/02/24 07:05:43;;;;;;;1.55;1.25;;;;;;;;;;4919100;29;20023;-80
2024/02/24 07:08:28;;;;;;;3.30;1.23;;;;;;;;;;4918416;29;20091;-80
2024/02/24 07:11:13;;;;;;;4.05;0.90;;;;;;;;;;4919021;29;20035;-80
2024/02/24 07:13:58;;;;;;;2.92;1.05;;;;;;;;;;4921722;29;20065;-80
2024/02/24 07:16:44;;;;;;;1.00;0.90;;;;;;;;;;4908025;29;20035;-80
2024/02/24 07:19:29;;;;;;;1.75;1.25;;;;;;;;;;4926668;29;20024;-81
2024/02/24 07:22:15;;;;;;;2.10;1.42;;;;;;;;;;4925301;29;20063;-81
2024/02/24 07:25:00;;;;;;;3.05;1.65;;;;;;;;;;4904397;29;20047;-82
2024/02/24 07:27:45;;;;;;;2.42;1.13;;;;;;;;;;4920867;29;20035;-82
2024/02/24 07:30:30;;;;;;;4.07;1.23;;;;;;;;;;4922263;29;20034;-81
2024/02/24 07:33:16;;;;;;;2.13;1.20;;;;;;;;;;4923385;29;20664;-81
2024/02/24 07:36:01;;;;;;;3.50;1.33;;;;;;;;;;4923133;29;20028;-82
2024/02/24 07:38:46;;;;;;;1.13;0.80;;;;;;;;;;4925254;28;20039;-82
2024/02/24 07:41:32;;;;;;;3.17;1.40;;;;;;;;;;4942235;28;20069;-81
2024/02/24 07:44:17;;;;;;;1.58;0.98;;;;;;;;;;4907862;29;20498;-83
2024/02/24 07:47:03;;;;;;;1.17;0.90;;;;;;;;;;4925382;29;20038;-84
2024/02/24 07:49:48;;;;;;;1.35;0.80;;;;;;;;;;4915703;29;20106;-84
2024/02/24 07:52:34;;;;;;;1.30;0.90;;;;;;;;;;4923309;29;20019;-85
2024/02/24 07:55:19;;;;;;;2.90;1.00;;;;;;;;;;4908748;29;20032;-84
2024/02/24 07:58:05;;;;;;;2.47;0.70;;;;;;;;;;4918856;29;20039;-81
2024/02/24 08:00:50;;;;;;;1.13;0.70;;;;;;;;;;4920025;29;20114;-82
2024/02/24 08:03:35;;;;;;;2.10;0.80;;;;;;;;;;4917495;29;20368;-85
2024/02/24 08:06:20;;;;;;;1.23;0.75;;;;;;;;;;4916457;29;20036;-83
2024/02/24 08:09:06;;;;;;;1.35;0.90;;;;;;;;;;4915662;29;20032;-82
2024/02/24 08:11:52;;;;;;;1.40;0.80;;;;;;;;;;4910504;29;20414;-80
2024/02/24 08:14:37;;;;;;;0.70;0.70;;;;;;;;;;4916808;29;20012;-80
2024/02/24 08:17:22;;;;;;;0.73;0.70;;;;;;;;;;4921286;29;20086;-78
2024/02/24 08:20:08;;;;;;;1.30;0.70;;;;;;;;;;4915963;29;20028;-79
2024/02/24 08:22:53;;;;;;;1.95;0.80;;;;;;;;;;4920219;29;20296;-79
2024/02/24 08:25:38;;;;;;;0.93;0.63;;;;;;;;;;4918888;29;20035;-80
2024/02/24 08:28:24;;;;;;;1.83;0.90;;;;;;;;;;4918112;29;20082;-81
2024/02/24 08:31:09;;;;;;;0.77;0.77;;;;;;;;;;4916459;29;20087;-79
2024/02/24 08:33:54;;;;;;;1.75;0.73;;;;;;;;;;4919846;29;20069;-81
2024/02/24 08:36:39;;;;;;;2.72;1.35;;;;;;;;;;4925280;29;20475;-80
2024/02/24 08:39:25;;;;;;;2.05;1.10;;;;;;;;;;4926165;29;20096;-81
2024/02/24 08:42:12;;;;;;;3.65;1.00;;;;;;;;;;4916416;29;20026;-81
2024/02/24 08:44:58;;;;;;;1.42;0.98;;;;;;;;;;4904801;29;20028;-81
2024/02/24 08:47:46;;;;;;;0.70;0.70;;;;;;;;;;4926716;29;20396;-80
2024/02/24 08:50:31;;;;;;;2.22;0.98;;;;;;;;;;4918773;29;20051;-81
2024/02/24 08:53:17;;;;;;;1.13;0.80;;;;;;;;;;4917216;29;20035;-80
2024/02/24 08:56:02;;;;;;;2.67;1.08;;;;;;;;;;4907174;29;20474;-79
2024/02/24 08:58:47;;;;;;;0.88;0.80;;;;;;;;;;4920237;29;20099;-79
2024/02/24 09:01:33;;;;;;;2.78;0.90;;;;;;;;;;4920547;29;20126;-79
2024/02/24 09:04:18;;;;;;;0.80;0.70;;;;;;;;;;4920567;29;20036;-80
2024/02/24 09:07:03;;;;;;;0.70;0.70;;;;;;;;;;4921857;29;20027;-81
2024/02/24 09:09:49;;;;;;;0.82;0.82;;;;;;;;;;4928023;28;20023;-82
2024/02/24 09:12:34;;;;;;;1.30;0.90;;;;;;;;;;4929224;29;20113;-81
2024/02/24 09:15:19;;;;;;;1.02;0.60;;;;;;;;;;4918548;29;20036;-81
2024/02/24 09:18:07;;;;;;;0.93;0.63;;;;;;;;;;4921180;29;20035;-83
2024/02/24 09:20:52;;;;;;;1.70;0.93;;;;;;;;;;4923980;29;20028;-82
2024/02/24 09:23:39;;;;;;;0.85;0.80;;;;;;;;;;4926582;28;20087;-84
2024/02/24 09:26:25;;;;;;;1.60;0.90;;;;;;;;;;4918976;29;20854;-84
2024/02/24 09:29:10;;;;;;;1.92;0.90;;;;;;;;;;4918886;29;20055;-83
2024/02/24 09:31:56;;;;;;;0.77;0.77;;;;;;;;;;4919372;29;20099;-83
2024/02/24 09:34:41;;;;;;;2.55;0.80;;;;;;;;;;4930130;29;20110;-83
2024/02/24 09:37:27;;;;;;;1.65;1.17;;;;;;;;;;4905928;29;20074;-80
2024/02/24 09:40:12;;;;;;;1.58;1.00;;;;;;;;;;4904191;29;20027;-80
2024/02/24 09:43:03;;;;;;;2.17;0.80;;;;;;;;;;4904473;29;20039;-81
2024/02/24 09:45:48;;;;;;;1.38;0.80;;;;;;;;;;4914940;29;20035;-85
2024/02/24 09:48:34;;;;;;;1.20;0.95;;;;;;;;;;4911866;29;20027;-81
2024/02/24 09:51:19;;;;;;;0.80;0.80;;;;;;;;;;4922936;28;20027;-83
2024/02/24 09:54:04;;;;;;;1.70;0.90;;;;;;;;;;4910692;29;20019;-84
2024/02/24 09:56:52;;;;;;;1.63;1.08;;;;;;;;;;4907897;29;20095;-82
2024/02/24 09:59:40;;;;;;;2.22;1.00;;;;;;;;;;4909622;29;20028;-83
2024/02/24 10:02:26;;;;;;;1.05;0.80;;;;;;;;;;4914164;29;20046;-85
2024/02/24 10:05:13;;;;;;;2.08;0.95;;;;;;;;;;4906236;29;20039;-83
2024/02/24 10:07:59;;;;;;;1.65;0.70;;;;;;;;;;4908429;29;20023;-84
2024/02/24 10:10:44;;;;;;;3.13;0.75;;;;;;;;;;4906388;29;20087;-82
2024/02/24 10:13:32;;;;;;;1.75;0.77;;;;;;;;;;4909427;29;20031;-82
2024/02/24 10:16:19;;;;;;;1.75;0.80;;;;;;;;;;4912565;29;20408;-84
2024/02/24 10:19:05;;;;;;;1.83;0.82;;;;;;;;;;4908950;29;20035;-82
2024/02/24 10:21:51;;;;;;;2.40;0.90;;;;;;;;;;4911233;28;20023;-82
2024/02/24 10:24:36;;;;;;;1.38;0.73;;;;;;;;;;4913408;29;20035;-82
2024/02/24 10:27:21;;;;;;;0.63;0.63;;;;;;;;;;4905560;29;20024;-82
2024/02/24 10:30:07;;;;;;;0.85;0.68;;;;;;;;;;4910584;29;20607;-83
2024/02/24 10:32:53;;;;;;;1.00;0.80;;;;;;;;;;4909160;29;20032;-83
2024/02/24 10:35:38;;;;;;;0.88;0.70;;;;;;;;;;4911762;29;20086;-85
2024/02/24 10:38:24;;;;;;;0.88;0.80;;;;;;;;;;4919001;28;20175;-86
2024/02/24 10:41:10;;;;;;;0.82;0.70;;;;;;;;;;4919115;29;20035;-83
2024/02/24 10:43:55;;;;;;;1.23;0.80;;;;;;;;;;4907526;29;20035;-83
2024/02/24 10:46:41;;;;;;;2.22;0.75;;;;;;;;;;4918727;29;20099;-84
2024/02/24 10:49:26;;;;;;;2.35;0.90;;;;;;;;;;4914994;29;20140;-84
2024/02/24 10:52:12;;;;;;;0.60;0.60;;;;;;;;;;4914866;29;20035;-91
2024/02/24 10:55:00;;;;;;;1.98;1.10;;;;;;;;;;4913449;29;20031;-87
2024/02/24 10:57:45;;;;;;;1.60;0.82;;;;;;;;;;4903665;29;20059;-84
2024/02/24 11:00:31;;;;;;;1.13;1.02;;;;;;;;;;4912941;29;20467;-85
2024/02/24 11:03:19;;;;;;;1.42;0.82;;;;;;;;;;4913283;29;20031;-84
2024/02/24 11:06:05;;;;;;;0.68;0.68;;;;;;;;;;4911371;29;20019;-85
2024/02/24 11:08:53;;;;;;;1.85;1.05;;;;;;;;;;4907361;29;20055;-84
2024/02/24 11:11:39;;;;;;;2.40;1.45;;;;;;;;;;4923905;29;20028;-84
2024/02/24 11:14:25;;;;;;;3.60;0.80;;;;;;;;;;4911894;29;20036;-84
2024/02/24 11:17:10;;;;;;;1.80;0.80;;;;;;;;;;4911971;29;20055;-87
2024/02/24 11:19:56;;;;;;;0.60;0.60;;;;;;;;;;4913438;29;20106;-86
2024/02/24 11:22:42;;;;;;;0.60;0.60;;;;;;;;;;4909957;29;20110;-86
2024/02/24 11:25:27;;;;;;;1.65;0.82;;;;;;;;;;4907647;29;20033;-85
2024/02/24 11:28:20;;;;;;;1.13;0.93;;;;;;;;;;4915091;29;20068;-85
2024/02/24 11:31:05;;;;;;;1.55;0.60;;;;;;;;;;4908940;29;20024;-86
2024/02/24 11:33:56;;;;;;;1.15;0.73;;;;;;;;;;4908802;29;20115;-86
2024/02/24 11:36:43;;;;;;;0.85;0.65;;;;;;;;;;4908350;29;20040;-86
2024/02/24 11:39:29;;;;;;;1.00;0.70;;;;;;;;;;4913007;29;20443;-86
2024/02/24 11:42:14;;;;;;;0.85;0.70;;;;;;;;;;4909365;29;20023;-86
2024/02/24 11:45:01;;;;;;;1.70;0.90;;;;;;;;;;4910173;29;20083;-84
2024/02/24 11:47:46;;;;;;;1.55;0.70;;;;;;;;;;4908415;28;20035;-85
2024/02/24 11:50:31;;;;;;;2.45;0.88;;;;;;;;;;4905126;29;20068;-85
2024/02/24 11:53:18;;;;;;;1.17;0.70;;;;;;;;;;4911469;29;20031;-85
2024/02/24 11:56:03;;;;;;;0.93;0.77;;;;;;;;;;4906793;29;20028;-86
2024/02/24 11:58:49;;;;;;;1.08;0.80;;;;;;;;;;4911533;29;20032;-84
2024/02/24 12:01:36;;;;;;;1.77;0.80;;;;;;;;;;4909044;29;20031;-84
2024/02/24 12:04:23;;;;;;;3.47;0.77;;;;;;;;;;4912683;29;20031;-83
2024/02/24 12:07:08;;;;;;;0.82;0.70;;;;;;;;;;4910663;29;20043;-84
2024/02/24 12:09:53;;;;;;;1.48;0.57;;;;;;;;;;4909686;29;20122;-85
2024/02/24 12:12:39;;;;;;;1.17;0.70;;;;;;;;;;4909154;29;20016;-84
2024/02/24 12:15:24;;;;;;;1.13;1.00;;;;;;;;;;4906114;29;20050;-85
2024/02/24 12:18:10;;;;;;;0.82;0.80;;;;;;;;;;4908192;29;20101;-84
2024/02/24 12:20:58;;;;;;;1.42;1.00;;;;;;;;;;4912313;29;20082;-86
2024/02/24 12:23:46;;;;;;;1.02;0.90;;;;;;;;;;4911229;29;20027;-83
2024/02/24 12:26:39;;;;;;;0.75;0.70;;;;;;;;;;4913687;29;20450;-86
2024/02/24 12:29:25;;;;;;;2.33;0.70;;;;;;;;;;4917944;28;20110;-86
2024/02/24 12:32:13;;;;;;;2.30;1.10;;;;;;;;;;4909595;29;20020;-87
2024/02/24 12:35:29;;;;;;;1.38;0.85;;;;;;;;;;5048691;28;20490;-86
2024/02/24 12:38:17;;;;;;;2.20;0.85;;;;;;;;;;5037096;28;20029;-86
2024/02/24 12:41:05;;;;;;;1.05;0.80;;;;;;;;;;5035534;28;20025;-84
2024/02/24 12:43:51;;;;;;;0.67;0.67;;;;;;;;;;5039090;28;20033;-85
2024/02/24 12:46:37;;;;;;;0.75;0.75;;;;;;;;;;5030492;28;20060;-80
2024/02/24 12:49:22;;;;;;;4.30;0.90;;;;;;;;;;5028397;28;20025;-80
2024/02/24 12:52:07;;;;;;;1.73;1.13;;;;;;;;;;5027559;28;20021;-78
2024/02/24 12:54:53;;;;;;;0.60;0.60;;;;;;;;;;5031465;28;20028;-76
2024/02/24 12:57:38;;;;;;;1.92;0.93;;;;;;;;;;5030851;28;20021;-77
2024/02/24 13:00:23;;;;;;;4.05;1.17;;;;;;;;;;5031369;28;20009;-78
2024/02/24 13:03:07;;;;;;;0.90;0.90;;;;;;;;;;5063004;28;20027;-78
2024/02/24 13:05:51;;;;;;;0.73;0.65;;;;;;;;;;5048612;28;20048;-78
2024/02/24 13:08:35;;;;;;;1.33;0.80;;;;;;;;;;5053322;28;20438;-77
2024/02/24 13:11:21;;;;;;;1.55;0.82;;;;;;;;;;5053618;28;20033;-76
2024/02/24 13:14:07;;;;;;;0.73;0.70;;;;;;;;;;5023670;28;20030;-77
2024/02/24 13:16:52;;;;;;;1.88;0.80;;;;;;;;;;5025544;28;20574;-78
2024/02/24 13:19:37;;;;;;;0.68;0.63;;;;;;;;;;5025171;28;20025;-76
2024/02/24 13:22:23;;;;;;;1.45;0.77;;;;;;;;;;5031463;28;20116;-78
2024/02/24 13:25:09;;;;;;;1.83;0.70;;;;;;;;;;5009897;28;20030;-78
2024/02/24 13:27:54;;;;;;;1.20;0.70;;;;;;;;;;5030806;28;20017;-77
2024/02/24 13:30:39;;;;;;;1.65;0.90;;;;;;;;;;5018164;28;20018;-83
2024/02/24 13:33:25;;;;;;;0.88;0.60;;;;;;;;;;5018211;28;20048;-84
2024/02/24 13:36:10;;;;;;;2.05;0.60;;;;;;;;;;5021518;28;20107;-83
2024/02/24 13:38:56;;;;;;;0.70;0.57;;;;;;;;;;5021754;28;20107;-84
2024/02/24 13:41:41;;;;;;;1.85;0.98;;;;;;;;;;5017869;28;20025;-84
2024/02/24 13:44:26;;;;;;;1.15;0.73;;;;;;;;;;5019000;28;20079;-83
2024/02/24 13:47:11;;;;;;;1.20;0.70;;;;;;;;;;5012264;28;20104;-84
2024/02/24 13:50:00;;;;;;;2.38;1.15;;;;;;;;;;5005235;28;20031;-84
2024/02/24 13:52:45;;;;;;;1.25;1.13;;;;;;;;;;5003821;28;20068;-84
2024/02/24 13:55:31;;;;;;;3.00;0.90;;;;;;;;;;5009618;28;20029;-85
2024/02/24 13:58:16;;;;;;;1.95;1.25;;;;;;;;;;5011265;28;20024;-84
2024/02/24 14:01:01;;;;;;;0.82;0.73;;;;;;;;;;5007615;28;20037;-84
2024/02/24 14:03:47;;;;;;;2.85;0.77;;;;;;;;;;5009260;28;20025;-84
2024/02/24 14:06:34;;;;;;;1.15;1.05;;;;;;;;;;5001704;28;20068;-83
2024/02/24 14:09:19;;;;;;;2.88;0.80;;;;;;;;;;4999908;28;20076;-84
2024/02/24 14:12:04;;;;;;;1.48;0.70;;;;;;;;;;5005521;28;20053;-87
2024/02/24 14:14:50;;;;;;;2.72;0.95;;;;;;;;;;5008568;28;20036;-87
2024/02/24 14:17:35;;;;;;;0.98;0.85;;;;;;;;;;5003444;28;20033;-85
2024/02/24 14:20:20;;;;;;;1.23;0.90;;;;;;;;;;5004801;28;20025;-86
2024/02/24 14:23:06;;;;;;;2.05;0.88;;;;;;;;;;5001727;28;20108;-85
2024/02/24 14:25:51;;;;;;;1.42;1.00;;;;;;;;;;5003554;28;20337;-86
2024/02/24 14:28:37;;;;;;;1.27;1.00;;;;;;;;;;5002814;28;20028;-85
2024/02/24 14:31:23;;;;;;;2.20;1.10;;;;;;;;;;5006999;28;20029;-85
2024/02/24 14:34:08;;;;;;;0.80;0.80;;;;;;;;;;5006931;28;20048;-85
2024/02/24 14:36:53;;;;;;;2.50;0.80;;;;;;;;;;5012749;28;20088;-86
2024/02/24 14:39:38;;;;;;;1.88;0.90;;;;;;;;;;4990355;28;20084;-85
2024/02/24 14:42:24;;;;;;;0.73;0.60;;;;;;;;;;5008034;28;20025;-84
2024/02/24 14:45:09;;;;;;;2.70;0.80;;;;;;;;;;4997681;28;20029;-86
2024/02/24 14:47:59;;;;;;;1.35;0.70;;;;;;;;;;5003176;28;20535;-84
2024/02/24 14:50:53;;;;;;;0.60;0.60;;;;;;;;;;5010846;28;20056;-86
2024/02/24 14:53:39;;;;;;;1.63;1.00;;;;;;;;;;5008336;28;20075;-86
2024/02/24 14:56:24;;;;;;;3.55;1.00;;;;;;;;;;5013515;28;20068;-85
2024/02/24 14:59:12;;;;;;;2.47;1.38;;;;;;;;;;5011572;28;20384;-86
2024/02/24 15:01:57;;;;;;;3.55;1.60;;;;;;;;;;5007833;28;20057;-84
2024/02/24 15:04:42;;;;;;;2.20;1.00;;;;;;;;;;5002087;28;20056;-86
2024/02/24 15:07:27;;;;;;;3.03;1.00;;;;;;;;;;5006285;28;20358;-85
2024/02/24 15:10:13;;;;;;;3.70;1.10;;;;;;;;;;5015562;28;20087;-86
2024/02/24 15:12:58;;;;;;;1.10;0.63;;;;;;;;;;5008469;28;20048;-87
2024/02/24 15:15:44;;;;;;;4.03;1.00;;;;;;;;;;5009753;28;20116;-86
2024/02/24 15:18:29;;;;;;;1.77;1.10;;;;;;;;;;5007527;28;20152;-86
2024/02/24 15:21:14;;;;;;;1.05;0.73;;;;;;;;;;5003288;28;20037;-87
2024/02/24 15:23:59;;;;;;;0.73;0.70;;;;;;;;;;5005972;28;20383;-86
2024/02/24 15:26:45;;;;;;;2.42;0.80;;;;;;;;;;4998164;28;20487;-86
2024/02/24 15:29:30;;;;;;;2.28;0.75;;;;;;;;;;5007555;28;20037;-86
2024/02/24 15:32:15;;;;;;;2.00;0.98;;;;;;;;;;5005241;28;20064;-87
2024/02/24 15:35:00;;;;;;;6.63;2.80;;;;;;;;;;5011005;28;20164;-85
2024/02/24 15:37:46;;;;;;;1.17;0.98;;;;;;;;;;4999903;28;20046;-85
2024/02/24 15:40:32;;;;;;;0.90;0.80;;;;;;;;;;5008928;28;20041;-84
2024/02/24 15:43:17;;;;;;;1.10;0.82;;;;;;;;;;5005091;28;20487;-84
2024/02/24 15:46:03;;;;;;;0.70;0.70;;;;;;;;;;5016404;28;20117;-84
2024/02/24 15:48:48;;;;;;;2.42;1.10;;;;;;;;;;5011555;28;20116;-85
2024/02/24 15:51:34;;;;;;;2.17;1.55;;;;;;;;;;5009993;28;20104;-85
2024/02/24 15:54:19;;;;;;;3.08;1.60;;;;;;;;;;5007032;28;20101;-85
2024/02/24 15:57:04;;;;;;;1.55;1.00;;;;;;;;;;5010137;28;20676;-85
2024/02/24 15:59:50;;;;;;;2.22;1.20;;;;;;;;;;4995744;28;20530;-85
2024/02/24 16:02:35;;;;;;;3.50;1.33;;;;;;;;;;5005772;28;20033;-87
2024/02/24 16:05:21;;;;;;;1.75;1.08;;;;;;;;;;5002935;28;20037;-85
2024/02/24 16:08:07;;;;;;;2.63;0.90;;;;;;;;;;5006340;28;20432;-84
2024/02/24 16:10:52;;;;;;;1.52;1.08;;;;;;;;;;5000957;28;20490;-84
2024/02/24 16:13:37;;;;;;;2.13;1.20;;;;;;;;;;5000120;28;20186;-84
2024/02/24 16:16:23;;;;;;;2.25;1.00;;;;;;;;;;5007467;28;20048;-85
2024/02/24 16:19:09;;;;;;;2.17;1.23;;;;;;;;;;5004341;28;20033;-84
2024/02/24 16:21:54;;;;;;;2.17;1.20;;;;;;;;;;4996723;28;20061;-86
2024/02/24 16:24:39;;;;;;;1.52;0.90;;;;;;;;;;4999920;28;20104;-86
2024/02/24 16:27:25;;;;;;;1.80;1.23;;;;;;;;;;5001385;28;20036;-85
2024/02/24 16:30:10;;;;;;;0.95;0.85;;;;;;;;;;4999122;28;20033;-85
2024/02/24 16:32:58;;;;;;;1.38;0.90;;;;;;;;;;5005413;28;20037;-85
2024/02/24 16:35:43;;;;;;;2.78;1.23;;;;;;;;;;5007217;28;20030;-84
2024/02/24 16:38:29;;;;;;;2.97;1.35;;;;;;;;;;5001247;28;20037;-83